Airfield :
LOGIN :

Register | Disclaimer

   EN    FR    IT 

 










Legend :    VFR   Marginal VFR   IFR   Intensive IFR   Very Intensive IFR
Visi :
Ceiling :
>= 8 km
>= 3000ft
5 to 8 km
1000 to 3000 ft
1500m to 5 km
500 to 1000 ft
800 to 1500m
200 to 500 ft
< 800m
< 200 ft
Symbols :   Thunderstorms  Fog  Heavy snow  Heavy precipitations  Wind > 20 kt
SIGMETs :     Misc.  Thunderstorms  Icing  Turbulence  Mountain Waves  Volcanic Ashes






- Airport Elevation : 46 ft
- IATA code : SNN


EINN - Shannon

CURRENT METAR :
  • 081230Z 16004KT 9999 FEW026 15/05 Q1024 NOSIG

EXPIRED METARs :
  • 081200Z 15005KT 9999 FEW026 14/05 Q1024 NOSIG
  • 081130Z 14006KT 9999 FEW026 13/06 Q1024 NOSIG
  • 081100Z 13006KT 9999 FEW020 12/07 Q1025 NOSIG
  • 081030Z 12005KT 9999 FEW010 10/07 Q1025 NOSIG
  • 081000Z 14005KT 9000 SCT005 08/06 Q1025 REFG NOSIG

TAF TAF EINN
Valid from the 08 at 12:00 until the 09 at 12:00 UTC


081100Z 0812/0912 12006KT 9999 FEW020
BECMG 0812/0814 VRB03KT
BECMG 0816/0818 34008KT
BECMG 0820/0822 VRB03KT
TEMPO 0823/0908 3000 BR SCT005
PROB40
TEMPO 0900/0908 0400 FG BKN002
BECMG 0909/0911 13008KT



MET'MAP, your aeronautical weather chart ! - Copyright ORBIFLY December 2007 - Disclaimer

ORBIFLY MET'MAP TEAM :

Programming & Development : Alexandra Zaïnal
Concept & original design : Baudouin d'Aumeries
Assistance for programming : Marc-Olivier Méhu
Technical & hardware support : Manuel Goepfert

Contact : metmap@orbifly.com




SOURCES & CREDITS :

   NOAA